Time;durP1;ratioP1;P1;durP2;ratioP2;P2;SDS_P1;SDS_P2;PMS_P1;PMS_P2;Temp;Humidity;BMP_temperature;BMP_pressure;BME280_temperature;BME280_humidity;BME280_pressure;Samples;Min_cycle;Max_cycle;Signal;HPM_P1;HPM_P2
2022/07/02 00:00:44;;;;;;;2.67;1.60;;;16.00;99.90;;;;;;5079805;28;20298;-83
2022/07/02 00:03:36;;;;;;;6.67;1.67;;;16.00;99.90;;;;;;5074917;28;20238;-82
2022/07/02 00:06:28;;;;;;;3.80;1.70;;;15.90;99.90;;;;;;5080991;28;20221;-81
2022/07/02 00:09:13;;;;;;;2.73;1.80;;;15.90;99.90;;;;;;5104171;28;20189;-81
2022/07/02 00:11:59;;;;;;;2.83;1.90;;;15.90;99.90;;;;;;5071340;28;20193;-81
2022/07/02 00:14:44;;;;;;;5.03;1.60;;;15.90;99.90;;;;;;5080824;28;20225;-83
2022/07/02 00:17:28;;;;;;;4.83;1.80;;;15.80;99.90;;;;;;5079439;28;20269;-82
2022/07/02 00:20:13;;;;;;;2.70;1.80;;;15.80;99.90;;;;;;5078154;28;20202;-81
2022/07/02 00:22:57;;;;;;;7.43;2.00;;;15.80;99.90;;;;;;5066857;28;20302;-83
2022/07/02 00:25:53;;;;;;;3.13;2.10;;;15.70;99.90;;;;;;5076141;28;20292;-83
2022/07/02 00:28:42;;;;;;;2.83;2.17;;;15.70;99.90;;;;;;5070378;28;20194;-81
2022/07/02 00:31:27;;;;;;;3.03;2.27;;;15.70;99.90;;;;;;5071804;28;20233;-83
2022/07/02 00:34:12;;;;;;;3.63;2.33;;;15.60;99.90;;;;;;5070983;28;20217;-80
2022/07/02 00:36:57;;;;;;;2.97;2.70;;;15.60;99.90;;;;;;5074768;28;20187;-81
2022/07/02 00:39:41;;;;;;;3.53;2.37;;;15.50;99.90;;;;;;5078595;28;20181;-84
2022/07/02 00:42:27;;;;;;;4.40;2.60;;;15.50;99.90;;;;;;5072781;28;20279;-82
2022/07/02 00:45:14;;;;;;;4.33;2.50;;;15.40;99.90;;;;;;5065768;28;20232;-83
2022/07/02 00:48:00;;;;;;;6.00;2.93;;;15.40;99.90;;;;;;5078081;28;20245;-82
2022/07/02 00:50:44;;;;;;;5.47;2.70;;;15.30;99.90;;;;;;5074519;28;20178;-83
2022/07/02 00:53:29;;;;;;;3.63;2.53;;;15.30;99.90;;;;;;5075920;28;20210;-82
2022/07/02 00:56:13;;;;;;;6.03;2.57;;;15.30;99.90;;;;;;5076015;28;20252;-82
2022/07/02 00:58:58;;;;;;;3.13;2.43;;;15.30;99.90;;;;;;5077861;28;20174;-82
2022/07/02 01:01:42;;;;;;;3.03;2.40;;;15.20;99.90;;;;;;5079405;28;20224;-82
2022/07/02 01:04:29;;;;;;;5.00;2.80;;;15.20;99.90;;;;;;5068378;28;20209;-83
2022/07/02 01:07:18;;;;;;;2.50;2.30;;;15.20;99.90;;;;;;5077272;28;20169;-86
2022/07/02 01:10:19;;;;;;;2.60;2.30;;;15.10;99.90;;;;;;5075735;28;20182;-82
2022/07/02 01:13:03;;;;;;;3.73;2.63;;;15.10;99.90;;;;;;5075784;28;20201;-83
2022/07/02 01:15:48;;;;;;;3.37;2.50;;;15.10;99.90;;;;;;5070735;28;20191;-83
2022/07/02 01:18:34;;;;;;;3.47;2.50;;;15.00;99.90;;;;;;5077754;28;20259;-81
2022/07/02 01:21:21;;;;;;;5.43;2.77;;;15.00;99.90;;;;;;5078327;28;20191;-83
2022/07/02 01:24:06;;;;;;;3.50;2.60;;;15.00;99.90;;;;;;5089857;28;20237;-85
2022/07/02 01:26:51;;;;;;;4.93;2.30;;;15.00;99.90;;;;;;5073192;28;20253;-80
2022/07/02 01:29:35;;;;;;;5.43;2.70;;;15.00;99.90;;;;;;5076186;28;20684;-81
2022/07/02 01:32:20;;;;;;;5.67;2.40;;;14.90;99.90;;;;;;5075303;28;20214;-82
2022/07/02 01:35:08;;;;;;;4.03;2.70;;;14.90;99.90;;;;;;5075453;28;20177;-82
2022/07/02 01:37:53;;;;;;;3.80;2.60;;;14.90;99.90;;;;;;5076576;28;20189;-82
2022/07/02 01:40:37;;;;;;;4.60;2.40;;;14.90;99.90;;;;;;5076910;28;20189;-82
2022/07/02 01:43:21;;;;;;;2.80;2.50;;;14.90;99.90;;;;;;5069311;28;20822;-82
2022/07/02 01:46:06;;;;;;;2.60;2.40;;;14.90;99.90;;;;;;5073244;28;20716;-82
2022/07/02 01:48:50;;;;;;;4.80;2.40;;;14.80;99.90;;;;;;5076425;28;20182;-81
2022/07/02 01:51:35;;;;;;;2.57;2.37;;;14.80;99.90;;;;;;5073898;28;20202;-83
2022/07/02 01:54:19;;;;;;;2.93;2.50;;;14.80;99.90;;;;;;5075208;28;20217;-84
2022/07/02 01:57:04;;;;;;;5.67;2.67;;;14.80;99.90;;;;;;5076831;28;20285;-81
2022/07/02 01:59:48;;;;;;;2.67;2.33;;;14.70;99.90;;;;;;5073572;28;20208;-82
2022/07/02 02:02:32;;;;;;;3.37;2.73;;;14.70;99.90;;;;;;5076264;28;20225;-82
2022/07/02 02:05:17;;;;;;;3.40;2.53;;;14.70;99.90;;;;;;5074934;28;20613;-83
2022/07/02 02:08:01;;;;;;;3.50;2.63;;;14.60;99.90;;;;;;5080579;28;20189;-79
2022/07/02 02:10:46;;;;;;;2.80;2.27;;;14.60;99.90;;;;;;5074227;28;20242;-84
2022/07/02 02:13:30;;;;;;;3.37;2.40;;;14.60;99.90;;;;;;5074879;28;20292;-83
2022/07/02 02:16:14;;;;;;;5.13;2.10;;;14.60;99.90;;;;;;5076902;28;20725;-82
2022/07/02 02:18:59;;;;;;;3.07;2.10;;;14.60;99.90;;;;;;5074584;28;20298;-82
2022/07/02 02:21:44;;;;;;;2.50;2.30;;;14.50;99.90;;;;;;5079795;28;20195;-83
2022/07/02 02:24:28;;;;;;;2.67;2.40;;;14.50;99.90;;;;;;5067665;28;20222;-83
2022/07/02 02:27:12;;;;;;;4.30;2.50;;;14.50;99.90;;;;;;5079588;28;20263;-83
2022/07/02 02:29:57;;;;;;;2.47;2.20;;;14.50;99.90;;;;;;5080221;28;20210;-81
2022/07/02 02:32:41;;;;;;;5.60;2.80;;;14.50;99.90;;;;;;5076462;28;20247;-80
2022/07/02 02:35:25;;;;;;;2.70;2.47;;;14.50;99.90;;;;;;5075011;28;20202;-82
2022/07/02 02:38:09;;;;;;;6.40;2.73;;;14.40;99.90;;;;;;5082322;28;20330;-81
2022/07/02 02:40:53;;;;;;;2.80;2.23;;;14.40;99.90;;;;;;5077708;28;20177;-82
2022/07/02 02:43:38;;;;;;;4.27;2.47;;;14.40;99.90;;;;;;5080574;28;20233;-80
2022/07/02 02:46:22;;;;;;;4.10;2.60;;;14.40;99.90;;;;;;5068934;28;20256;-83
2022/07/02 02:49:07;;;;;;;6.40;2.43;;;14.40;99.90;;;;;;5079334;28;20244;-83
2022/07/02 02:51:51;;;;;;;3.13;2.90;;;14.30;99.90;;;;;;5079726;28;20198;-82
2022/07/02 02:54:35;;;;;;;7.33;2.73;;;14.30;99.90;;;;;;5077904;28;20301;-81
2022/07/02 02:57:20;;;;;;;4.73;2.47;;;14.30;99.90;;;;;;5076711;28;20926;-82
2022/07/02 03:00:04;;;;;;;4.57;2.63;;;14.30;99.90;;;;;;5082286;28;20181;-82
2022/07/02 03:02:49;;;;;;;5.40;3.10;;;14.20;99.90;;;;;;5077747;28;20178;-80
2022/07/02 03:05:33;;;;;;;2.80;2.30;;;14.20;99.90;;;;;;5076834;28;20225;-82
2022/07/02 03:08:17;;;;;;;5.70;2.77;;;14.20;99.90;;;;;;5083983;28;20202;-82
2022/07/02 03:11:02;;;;;;;8.03;2.70;;;14.10;99.90;;;;;;5086129;28;20198;-81
2022/07/02 03:13:46;;;;;;;4.17;2.50;;;14.10;99.90;;;;;;5081280;28;20213;-80
2022/07/02 03:16:31;;;;;;;5.07;2.37;;;14.10;99.90;;;;;;5081678;28;20247;-82
2022/07/02 03:19:16;;;;;;;3.40;2.23;;;14.10;99.90;;;;;;5075470;28;20181;-81
2022/07/02 03:22:00;;;;;;;3.40;2.53;;;14.10;99.90;;;;;;5108342;28;20208;-82
2022/07/02 03:24:44;;;;;;;4.83;2.60;;;14.10;99.90;;;;;;5079351;28;20269;-81
2022/07/02 03:27:30;;;;;;;6.43;2.60;;;14.00;99.90;;;;;;5076059;28;20189;-82
2022/07/02 03:30:14;;;;;;;5.03;2.70;;;14.00;99.90;;;;;;5078935;28;20197;-81
2022/07/02 03:32:58;;;;;;;4.30;2.70;;;14.00;99.90;;;;;;5079279;28;20222;-82
2022/07/02 03:35:42;;;;;;;3.23;2.40;;;14.00;99.90;;;;;;5084481;28;20194;-81
2022/07/02 03:38:27;;;;;;;5.37;2.70;;;14.10;99.90;;;;;;5084834;28;20190;-83
2022/07/02 03:41:12;;;;;;;4.00;2.70;;;14.00;99.90;;;;;;5079956;28;20205;-82
2022/07/02 03:43:56;;;;;;;4.73;2.90;;;14.10;99.90;;;;;;5085797;28;20228;-83
2022/07/02 03:46:40;;;;;;;4.47;2.87;;;14.00;99.90;;;;;;5080260;28;20225;-81
2022/07/02 03:49:24;;;;;;;2.77;2.50;;;14.00;99.90;;;;;;5084513;28;20185;-81
2022/07/02 03:52:08;;;;;;;4.20;2.87;;;14.00;99.90;;;;;;5075458;28;20274;-82
2022/07/02 03:54:52;;;;;;;5.17;2.50;;;14.00;99.90;;;;;;5082456;28;20256;-79
2022/07/02 03:57:36;;;;;;;5.60;2.60;;;14.00;99.90;;;;;;5083950;28;20201;-79
2022/07/02 04:00:21;;;;;;;5.13;2.43;;;14.00;99.90;;;;;;5080165;28;20216;-84
2022/07/02 04:03:05;;;;;;;6.83;2.77;;;14.00;99.90;;;;;;5076736;28;20220;-81
2022/07/02 04:05:49;;;;;;;5.40;2.20;;;14.10;99.90;;;;;;5081070;28;20250;-82
2022/07/02 04:08:33;;;;;;;5.47;2.70;;;14.10;99.90;;;;;;5086808;28;20181;-81
2022/07/02 04:11:18;;;;;;;3.00;2.30;;;14.10;99.90;;;;;;5084341;28;20182;-80
2022/07/02 04:14:02;;;;;;;3.53;2.33;;;14.10;99.90;;;;;;5076681;28;20233;-80
2022/07/02 04:16:46;;;;;;;3.50;2.30;;;14.10;99.90;;;;;;5073067;28;20210;-81
2022/07/02 04:19:31;;;;;;;3.67;2.50;;;14.20;99.90;;;;;;5075712;28;20218;-82
2022/07/02 04:22:15;;;;;;;4.53;2.43;;;14.20;99.90;;;;;;5073665;28;20232;-83
2022/07/02 04:25:00;;;;;;;2.87;2.40;;;14.20;99.90;;;;;;5078663;28;20209;-82
2022/07/02 04:27:44;;;;;;;6.23;2.33;;;14.20;99.90;;;;;;5079659;28;20205;-82
2022/07/02 04:30:29;;;;;;;4.77;2.50;;;14.20;99.90;;;;;;5075311;28;20263;-80
2022/07/02 04:33:13;;;;;;;7.53;2.30;;;14.30;99.90;;;;;;5072036;28;20688;-80
2022/07/02 04:35:57;;;;;;;4.73;2.60;;;14.30;99.90;;;;;;5079202;28;20193;-82
2022/07/02 04:38:41;;;;;;;4.30;2.33;;;14.30;99.90;;;;;;5078764;28;20201;-80
2022/07/02 04:41:26;;;;;;;5.17;2.33;;;14.40;99.90;;;;;;5074359;28;20193;-82
2022/07/02 04:44:15;;;;;;;5.07;2.20;;;14.40;99.90;;;;;;5077292;28;20217;-81
2022/07/02 04:47:00;;;;;;;4.60;2.80;;;14.40;99.90;;;;;;5071019;28;20291;-80
2022/07/02 04:49:44;;;;;;;8.03;2.87;;;14.50;99.90;;;;;;5072989;28;20189;-80
2022/07/02 04:52:28;;;;;;;6.30;2.77;;;14.50;99.90;;;;;;5073794;28;20255;-80
2022/07/02 04:55:12;;;;;;;5.63;3.00;;;14.60;99.90;;;;;;5087504;28;20201;-80
2022/07/02 04:57:56;;;;;;;3.97;2.57;;;14.60;99.90;;;;;;5067905;28;20195;-81
2022/07/02 05:00:40;;;;;;;7.00;3.17;;;14.60;99.90;;;;;;5075120;28;20189;-80
2022/07/02 05:03:24;;;;;;;6.63;3.07;;;14.70;99.90;;;;;;5072677;28;20229;-80
2022/07/02 05:06:08;;;;;;;5.17;2.97;;;14.70;99.90;;;;;;5070266;28;20230;-81
2022/07/02 05:08:52;;;;;;;4.50;3.33;;;14.80;99.90;;;;;;5069818;28;20277;-80
2022/07/02 05:11:37;;;;;;;5.03;3.07;;;14.80;99.90;;;;;;5077008;28;20194;-80
2022/07/02 05:14:21;;;;;;;4.70;2.93;;;14.80;99.90;;;;;;5072064;28;20287;-81
2022/07/02 05:17:05;;;;;;;11.17;3.33;;;14.90;99.90;;;;;;5073866;28;20228;-80
2022/07/02 05:19:49;;;;;;;7.17;3.10;;;14.90;99.90;;;;;;5083957;28;20193;-80
2022/07/02 05:22:33;;;;;;;6.13;3.20;;;15.00;99.90;;;;;;5072866;28;20233;-80
2022/07/02 05:25:17;;;;;;;6.97;3.33;;;15.00;99.90;;;;;;5089987;28;20284;-80
2022/07/02 05:28:02;;;;;;;7.17;3.53;;;15.10;99.90;;;;;;5068935;28;20199;-81
2022/07/02 05:30:51;;;;;;;7.53;2.90;;;15.10;99.90;;;;;;5082100;28;20205;-80
2022/07/02 05:33:35;;;;;;;7.07;3.40;;;15.20;99.90;;;;;;5071151;28;20206;-81
2022/07/02 05:36:19;;;;;;;6.87;3.10;;;15.30;99.90;;;;;;5068078;28;20229;-80
2022/07/02 05:39:03;;;;;;;4.50;3.30;;;15.40;99.90;;;;;;5070062;28;20188;-80
2022/07/02 05:41:47;;;;;;;6.97;3.20;;;15.40;99.90;;;;;;5071093;28;20209;-80
2022/07/02 05:44:32;;;;;;;11.10;3.27;;;15.50;99.90;;;;;;5070314;28;20653;-80
2022/07/02 05:47:16;;;;;;;8.17;3.03;;;15.60;99.90;;;;;;5069834;28;20286;-79
2022/07/02 05:50:00;;;;;;;5.47;3.03;;;15.70;99.90;;;;;;5065823;28;20202;-79
2022/07/02 05:52:45;;;;;;;4.70;3.10;;;15.80;99.90;;;;;;5072388;28;20252;-80
2022/07/02 05:55:29;;;;;;;5.43;3.17;;;15.80;99.90;;;;;;5064240;28;20225;-80
2022/07/02 05:58:13;;;;;;;7.20;3.03;;;15.90;99.90;;;;;;5073391;28;20202;-80
2022/07/02 06:00:57;;;;;;;3.53;3.07;;;16.00;99.90;;;;;;5071414;28;20190;-80
2022/07/02 06:03:41;;;;;;;7.00;3.10;;;16.00;99.90;;;;;;5072208;28;20259;-79
2022/07/02 06:09:29;;;;;;;3.53;3.23;;;16.20;99.90;;;;;;5084391;28;20186;-81
2022/07/02 06:12:13;;;;;;;5.10;2.77;;;16.40;99.90;;;;;;5077821;28;20189;-81
2022/07/02 06:14:57;;;;;;;6.27;2.77;;;16.50;99.90;;;;;;5078587;28;20220;-80
2022/07/02 06:17:41;;;;;;;3.37;2.77;;;16.60;99.90;;;;;;5076816;28;20194;-80
2022/07/02 06:20:25;;;;;;;8.90;3.00;;;16.70;99.90;;;;;;5075572;28;20189;-81
2022/07/02 06:23:10;;;;;;;4.43;2.97;;;16.80;99.90;;;;;;5080238;28;20214;-80
2022/07/02 06:25:54;;;;;;;3.07;2.80;;;16.90;99.90;;;;;;5076914;28;20243;-79
2022/07/02 06:28:38;;;;;;;3.73;2.90;;;17.00;99.90;;;;;;5071149;28;20240;-80
2022/07/02 06:31:22;;;;;;;3.83;2.77;;;17.10;99.90;;;;;;5071327;28;20186;-80
2022/07/02 06:34:06;;;;;;;5.00;3.03;;;17.20;99.90;;;;;;5076835;28;20232;-80
2022/07/02 06:36:50;;;;;;;5.43;2.90;;;17.40;99.90;;;;;;5075318;28;20204;-80
2022/07/02 06:39:35;;;;;;;6.47;1.90;;;17.50;99.90;;;;;;5078244;28;20233;-78
2022/07/02 06:42:19;;;;;;;5.40;2.10;;;17.60;99.90;;;;;;5078139;28;20566;-81
2022/07/02 06:45:03;;;;;;;5.03;2.27;;;17.70;99.90;;;;;;5072720;28;20241;-80
2022/07/02 06:47:48;;;;;;;6.80;1.83;;;17.80;99.90;;;;;;5075018;28;20193;-79
2022/07/02 06:50:32;;;;;;;4.70;2.20;;;18.00;99.90;;;;;;5081755;28;20257;-80
2022/07/02 06:53:16;;;;;;;4.87;1.80;;;18.10;99.90;;;;;;5081106;28;20213;-79
2022/07/02 06:56:03;;;;;;;3.77;2.13;;;18.20;99.90;;;;;;5077576;28;20209;-79
2022/07/02 06:58:48;;;;;;;3.73;1.87;;;18.30;99.90;;;;;;5079653;28;20193;-79
2022/07/02 07:01:33;;;;;;;5.13;1.60;;;18.40;99.90;;;;;;5076535;28;20190;-81
2022/07/02 07:04:17;;;;;;;7.63;1.90;;;18.50;99.90;;;;;;5077964;28;20787;-80
2022/07/02 07:07:05;;;;;;;6.28;2.28;;;18.60;99.90;;;;;;5078453;28;20249;-80
2022/07/02 07:09:49;;;;;;;4.23;1.83;;;18.70;99.90;;;;;;5080506;28;20186;-80
2022/07/02 07:12:34;;;;;;;4.97;1.60;;;18.80;99.90;;;;;;5075270;28;20202;-81
2022/07/02 07:15:19;;;;;;;8.02;1.88;;;18.90;99.90;;;;;;5079119;28;20232;-80
2022/07/02 07:18:03;;;;;;;7.57;1.73;;;19.00;99.90;;;;;;5076743;28;20202;-79
2022/07/02 07:20:50;;;;;;;5.57;1.77;;;19.10;99.90;;;;;;5072091;28;20221;-81
2022/07/02 07:23:34;;;;;;;7.37;1.90;;;19.20;99.90;;;;;;5080104;28;20201;-79
2022/07/02 07:26:18;;;;;;;6.93;1.80;;;19.20;99.90;;;;;;5073703;28;20209;-77
2022/07/02 07:29:06;;;;;;;7.27;1.60;;;19.30;99.90;;;;;;5077184;28;20201;-80
2022/07/02 07:31:50;;;;;;;3.83;1.80;;;19.40;99.90;;;;;;5083339;28;20198;-80
2022/07/02 07:34:34;;;;;;;7.53;1.52;;;19.40;99.90;;;;;;5072745;28;20214;-79
2022/07/02 07:37:18;;;;;;;7.20;1.85;;;19.50;99.90;;;;;;5070794;28;20186;-80
2022/07/02 07:40:04;;;;;;;4.05;1.45;;;19.50;99.90;;;;;;5071190;28;20186;-81
2022/07/02 07:42:48;;;;;;;4.53;1.65;;;19.50;99.90;;;;;;5071716;28;20189;-82
2022/07/02 07:45:32;;;;;;;5.13;1.10;;;19.70;99.90;;;;;;5074895;28;20256;-79
2022/07/02 07:48:16;;;;;;;4.57;1.20;;;19.70;99.90;;;;;;5073467;28;20232;-80
2022/07/02 07:51:00;;;;;;;3.00;1.30;;;19.80;99.90;;;;;;5068595;28;20274;-80
2022/07/02 07:53:45;;;;;;;2.38;0.98;;;19.90;99.90;;;;;;5073832;28;20209;-79
2022/07/02 07:56:29;;;;;;;3.95;1.10;;;19.90;99.90;;;;;;5037971;28;1008821;-82
2022/07/02 07:59:14;;;;;;;4.70;1.15;;;20.00;99.90;;;;;;5075231;28;20198;-81
2022/07/02 08:01:58;;;;;;;5.18;1.20;;;20.00;99.90;;;;;;5072769;28;20185;-80
2022/07/02 08:04:42;;;;;;;6.78;1.15;;;20.10;99.90;;;;;;5066742;28;20222;-81
2022/07/02 08:07:26;;;;;;;3.30;1.00;;;20.20;99.90;;;;;;5069275;28;20210;-79
2022/07/02 08:10:10;;;;;;;3.75;1.60;;;20.20;99.90;;;;;;5073143;28;20224;-79
2022/07/02 08:12:54;;;;;;;1.90;0.80;;;20.20;99.90;;;;;;5075485;28;20712;-79
2022/07/02 08:15:38;;;;;;;4.05;1.13;;;20.30;99.90;;;;;;5071456;28;20194;-81
2022/07/02 08:18:22;;;;;;;4.07;1.08;;;20.30;99.90;;;;;;5069786;28;20194;-79
2022/07/02 08:21:07;;;;;;;1.60;0.80;;;20.40;99.90;;;;;;5061748;28;20201;-80
2022/07/02 08:23:51;;;;;;;2.35;1.00;;;20.40;99.90;;;;;;5073339;28;20273;-80
2022/07/02 08:26:35;;;;;;;2.53;1.02;;;20.50;99.90;;;;;;5071015;28;20213;-79
2022/07/02 08:29:19;;;;;;;3.05;0.90;;;20.60;99.90;;;;;;5066611;28;20243;-79
2022/07/02 08:32:05;;;;;;;1.48;0.90;;;20.70;99.90;;;;;;5072134;28;20193;-79
2022/07/02 08:34:49;;;;;;;5.30;1.00;;;20.70;99.90;;;;;;5073486;28;20218;-80
2022/07/02 08:37:33;;;;;;;2.45;0.75;;;20.80;99.90;;;;;;5073381;28;20189;-79
2022/07/02 08:40:22;;;;;;;1.67;0.80;;;20.90;99.90;;;;;;5076566;28;20190;-80
2022/07/02 08:43:07;;;;;;;6.15;1.38;;;20.90;99.90;;;;;;5069924;28;20218;-80
2022/07/02 08:45:51;;;;;;;1.88;1.00;;;20.90;99.90;;;;;;5070627;28;20260;-81
2022/07/02 08:48:36;;;;;;;2.80;0.80;;;20.90;99.90;;;;;;5072319;28;20186;-81
2022/07/02 08:51:21;;;;;;;3.70;0.80;;;21.00;99.90;;;;;;5068178;28;20575;-78
2022/07/02 08:54:06;;;;;;;3.10;1.00;;;21.00;99.90;;;;;;5065402;28;20219;-78
2022/07/02 08:56:51;;;;;;;1.50;0.80;;;21.20;99.90;;;;;;5070470;28;20205;-77
2022/07/02 08:59:36;;;;;;;3.40;1.00;;;21.20;99.90;;;;;;5061754;28;20563;-77
2022/07/02 09:02:20;;;;;;;2.75;0.80;;;21.30;99.90;;;;;;5065576;28;20271;-77
2022/07/02 09:05:05;;;;;;;2.88;1.20;;;21.40;99.90;;;;;;5067436;28;20293;-77
2022/07/02 09:07:50;;;;;;;3.35;0.88;;;21.40;99.90;;;;;;5070417;28;20202;-77
2022/07/02 09:10:35;;;;;;;3.20;1.33;;;21.50;99.90;;;;;;5061564;28;20197;-77
2022/07/02 09:13:21;;;;;;;2.50;0.75;;;21.60;99.90;;;;;;5073658;28;20275;-77
2022/07/02 09:16:08;;;;;;;3.60;0.80;;;21.70;99.90;;;;;;5069920;28;20324;-77
2022/07/02 09:18:52;;;;;;;2.55;1.20;;;21.70;99.90;;;;;;5065263;28;20197;-77
2022/07/02 09:21:49;;;;;;;5.75;1.10;;;21.60;99.90;;;;;;5067054;28;20190;-77
2022/07/02 09:24:36;;;;;;;1.67;0.88;;;21.60;99.90;;;;;;5062929;28;20224;-76
2022/07/02 09:27:21;;;;;;;2.00;0.85;;;21.70;99.90;;;;;;5067285;28;20209;-77
2022/07/02 09:30:07;;;;;;;4.03;0.77;;;21.90;99.90;;;;;;5067574;28;20200;-76
2022/07/02 09:33:28;;;;;;;1.80;0.82;;;22.00;99.90;;;;;;5068773;28;20186;-76
2022/07/02 09:35:57;;;;;;;2.92;1.08;;;22.10;99.90;;;;;;5068772;28;20194;-77
2022/07/02 09:38:45;;;;;;;3.40;0.80;;;22.20;99.90;;;;;;5068433;28;20282;-76
2022/07/02 09:41:29;;;;;;;5.85;1.02;;;22.40;99.90;;;;;;5069968;28;20666;-76
2022/07/02 09:44:13;;;;;;;5.78;0.77;;;22.50;99.90;;;;;;5058198;28;20260;-77
2022/07/02 09:46:57;;;;;;;5.57;0.73;;;22.50;99.90;;;;;;5063721;28;20344;-76
2022/07/02 09:49:48;;;;;;;1.80;0.65;;;22.50;99.90;;;;;;5066278;28;20313;-76
2022/07/02 09:52:33;;;;;;;1.77;0.73;;;22.50;99.90;;;;;;5084330;28;20243;-77
2022/07/02 09:55:30;;;;;;;2.90;0.65;;;22.50;99.90;;;;;;5065346;28;20244;-76
2022/07/02 09:58:21;;;;;;;2.42;0.60;;;22.60;99.90;;;;;;5067476;28;20563;-78
2022/07/02 10:01:06;;;;;;;1.33;0.70;;;22.60;99.90;;;;;;5069347;28;20244;-79
2022/07/02 10:03:55;;;;;;;3.08;1.08;;;22.60;99.90;;;;;;5063998;28;20257;-79
2022/07/02 10:06:43;;;;;;;1.80;0.80;;;22.70;99.90;;;;;;5068415;28;20202;-80
2022/07/02 10:09:28;;;;;;;2.97;0.85;;;22.60;99.90;;;;;;5068554;28;20274;-79
2022/07/02 10:12:14;;;;;;;1.95;0.60;;;22.60;99.90;;;;;;5073157;28;20245;-80
2022/07/02 10:14:59;;;;;;;1.58;0.68;;;22.70;99.90;;;;;;5063800;28;20209;-79
2022/07/02 10:17:44;;;;;;;3.13;0.60;;;22.80;99.90;;;;;;5070837;28;20242;-79
2022/07/02 10:20:30;;;;;;;4.00;1.00;;;22.90;99.90;;;;;;5064424;28;20190;-79
2022/07/02 10:23:14;;;;;;;3.38;0.60;;;22.90;99.90;;;;;;5069824;28;20584;-79
2022/07/02 10:25:58;;;;;;;2.03;0.70;;;22.90;99.90;;;;;;5071254;28;20225;-79
2022/07/02 10:28:43;;;;;;;2.25;0.75;;;22.90;99.90;;;;;;5064581;28;20187;-78
2022/07/02 10:31:36;;;;;;;4.25;0.70;;;22.90;99.90;;;;;;5066044;28;20198;-80
2022/07/02 10:34:45;;;;;;;1.05;0.63;;;22.90;99.90;;;;;;5061168;28;20731;-79
2022/07/02 10:37:32;;;;;;;7.53;0.85;;;22.90;99.90;;;;;;5065817;28;20202;-79
2022/07/02 10:40:18;;;;;;;2.90;0.90;;;23.00;99.90;;;;;;5063295;28;20218;-78
2022/07/02 10:43:03;;;;;;;4.05;0.73;;;22.90;99.90;;;;;;5058197;28;20307;-78
2022/07/02 10:45:47;;;;;;;0.88;0.60;;;23.00;99.90;;;;;;5059392;28;20206;-78
2022/07/02 10:48:56;;;;;;;4.25;0.80;;;23.00;99.90;;;;;;5063669;28;20285;-77
2022/07/02 10:51:43;;;;;;;4.63;1.00;;;23.10;99.90;;;;;;5062012;28;20222;-79
2022/07/02 10:54:32;;;;;;;2.45;0.73;;;23.10;99.90;;;;;;5065607;28;20588;-78
2022/07/02 10:57:18;;;;;;;2.60;0.80;;;23.20;99.90;;;;;;5066478;28;20199;-78
2022/07/02 11:00:03;;;;;;;4.53;0.85;;;23.20;99.90;;;;;;5075125;28;20198;-78
2022/07/02 11:02:47;;;;;;;2.47;0.80;;;23.20;99.90;;;;;;5069007;28;20216;-77
2022/07/02 11:05:31;;;;;;;1.55;0.75;;;23.30;99.90;;;;;;5064300;28;20260;-77
2022/07/02 11:08:43;;;;;;;3.65;0.90;;;23.30;99.90;;;;;;5065296;28;20773;-77
2022/07/02 11:11:36;;;;;;;2.05;0.70;;;23.30;99.90;;;;;;5082080;28;20204;-77
2022/07/02 11:14:26;;;;;;;2.53;0.70;;;23.20;99.90;;;;;;5070499;28;20256;-77
2022/07/02 11:17:15;;;;;;;2.00;0.80;;;23.20;99.90;;;;;;5072896;28;20186;-77
2022/07/02 11:19:59;;;;;;;3.42;1.35;;;23.30;99.90;;;;;;5069856;28;20190;-77
2022/07/02 11:22:44;;;;;;;3.85;1.30;;;23.30;99.90;;;;;;5070532;28;20197;-77
2022/07/02 11:25:30;;;;;;;2.33;0.55;;;23.20;99.90;;;;;;5072059;28;20661;-77
2022/07/02 11:28:14;;;;;;;2.53;0.80;;;23.20;99.90;;;;;;5064227;28;20190;-77
2022/07/02 11:30:58;;;;;;;3.30;0.73;;;23.20;99.90;;;;;;5072009;28;20283;-77
2022/07/02 11:33:51;;;;;;;1.50;0.90;;;23.20;99.90;;;;;;5069892;28;20228;-77
2022/07/02 11:36:38;;;;;;;2.83;0.65;;;23.20;99.90;;;;;;5061196;28;20198;-77
2022/07/02 11:39:24;;;;;;;1.58;0.88;;;23.10;99.90;;;;;;5067434;28;20194;-77
2022/07/02 11:42:08;;;;;;;2.60;0.60;;;23.20;99.90;;;;;;5073101;28;20194;-78
2022/07/02 11:44:59;;;;;;;1.83;0.90;;;23.30;99.90;;;;;;5066557;28;20214;-77
2022/07/02 11:47:48;;;;;;;2.10;0.77;;;23.40;99.90;;;;;;5063247;28;20204;-77
2022/07/02 11:50:33;;;;;;;2.03;0.68;;;23.40;99.90;;;;;;5069051;28;20186;-77
2022/07/02 11:53:17;;;;;;;3.35;0.98;;;23.40;99.90;;;;;;5069382;28;20214;-79
2022/07/02 11:56:05;;;;;;;4.20;0.95;;;23.40;99.90;;;;;;5068237;28;20206;-77
2022/07/02 11:58:50;;;;;;;0.88;0.63;;;23.50;99.90;;;;;;5070387;28;20264;-77
2022/07/02 12:01:35;;;;;;;2.33;0.80;;;23.50;99.90;;;;;;5061002;28;20269;-78
2022/07/02 12:04:22;;;;;;;2.80;0.77;;;23.60;99.90;;;;;;5065862;28;20743;-77
2022/07/02 12:07:06;;;;;;;2.85;1.25;;;23.60;99.90;;;;;;5065815;28;20240;-77
2022/07/02 12:09:52;;;;;;;5.68;0.98;;;23.70;99.90;;;;;;5066594;28;20183;-77
2022/07/02 12:12:36;;;;;;;1.27;0.70;;;23.60;99.90;;;;;;5073534;28;20245;-78
2022/07/02 12:15:21;;;;;;;1.65;0.77;;;23.60;99.90;;;;;;5063492;28;20190;-78
2022/07/02 12:18:15;;;;;;;3.08;0.98;;;23.60;99.90;;;;;;5059958;28;20559;-77
2022/07/02 12:21:08;;;;;;;1.95;0.73;;;23.70;99.90;;;;;;5066751;28;20187;-78
2022/07/02 12:23:53;;;;;;;1.73;0.75;;;23.80;99.90;;;;;;5070404;28;20681;-77
2022/07/02 12:26:37;;;;;;;1.20;0.60;;;23.80;99.90;;;;;;5069729;28;20222;-77
2022/07/02 12:32:31;;;;;;;2.50;0.70;;;23.90;99.90;;;;;;5066003;28;20190;-80
2022/07/02 12:35:16;;;;;;;2.58;0.88;;;23.90;99.90;;;;;;5064918;28;20715;-78
2022/07/02 12:38:01;;;;;;;2.53;0.70;;;23.90;99.90;;;;;;5068302;28;20182;-78
2022/07/02 12:40:45;;;;;;;0.95;0.60;;;23.90;99.90;;;;;;5064830;28;20233;-77
2022/07/02 12:43:29;;;;;;;4.85;0.98;;;23.90;99.90;;;;;;5066710;28;20213;-79
2022/07/02 12:46:16;;;;;;;1.63;0.90;;;23.90;99.90;;;;;;5065955;28;20210;-78
2022/07/02 12:49:00;;;;;;;2.20;0.73;;;24.00;99.90;;;;;;5069707;28;20270;-78
2022/07/02 12:52:00;;;;;;;2.08;0.60;;;23.90;99.90;;;;;;5066760;28;20211;-78
2022/07/02 12:54:44;;;;;;;2.63;0.85;;;23.90;99.90;;;;;;5061981;28;20253;-78
2022/07/02 12:57:28;;;;;;;1.95;0.70;;;23.90;99.90;;;;;;5069325;28;20213;-79
2022/07/02 13:00:12;;;;;;;2.42;1.20;;;23.90;99.90;;;;;;5069661;28;20223;-77
2022/07/02 13:02:59;;;;;;;2.03;0.60;;;24.00;99.90;;;;;;5067064;28;20653;-77
2022/07/02 13:05:48;;;;;;;3.05;0.88;;;24.00;99.90;;;;;;5062135;28;20213;-77
2022/07/02 13:08:32;;;;;;;2.28;1.17;;;24.00;99.90;;;;;;5062586;28;20182;-78
2022/07/02 13:11:16;;;;;;;1.90;0.68;;;24.00;99.90;;;;;;5074085;28;20236;-77
2022/07/02 13:14:01;;;;;;;2.35;0.90;;;24.00;99.90;;;;;;5076802;28;20221;-78
2022/07/02 13:16:45;;;;;;;1.42;0.52;;;24.00;99.90;;;;;;5068324;28;20194;-78
2022/07/02 13:19:29;;;;;;;3.05;0.80;;;23.90;99.90;;;;;;5066834;28;20213;-79
2022/07/02 13:22:14;;;;;;;2.72;0.73;;;23.90;99.90;;;;;;5066366;28;20185;-78
2022/07/02 13:24:58;;;;;;;1.80;0.70;;;23.90;99.90;;;;;;5060920;28;20975;-78
2022/07/02 13:27:42;;;;;;;4.95;0.88;;;24.10;99.90;;;;;;5067776;28;20225;-78
2022/07/02 13:30:27;;;;;;;3.03;0.77;;;24.10;99.90;;;;;;5066373;28;20186;-78
2022/07/02 13:33:11;;;;;;;1.55;0.60;;;24.10;99.90;;;;;;5093397;28;20206;-78
2022/07/02 13:35:55;;;;;;;4.68;0.70;;;24.20;99.90;;;;;;5068342;28;20197;-79
2022/07/02 13:38:39;;;;;;;1.38;0.70;;;24.30;99.90;;;;;;5068185;28;20186;-78
2022/07/02 13:41:24;;;;;;;1.38;0.77;;;24.30;99.90;;;;;;5068556;28;20194;-78
2022/07/02 13:44:08;;;;;;;1.75;0.57;;;24.30;99.90;;;;;;5061280;28;20692;-78
2022/07/02 13:46:53;;;;;;;1.42;0.60;;;24.30;99.90;;;;;;5065112;28;20217;-77
2022/07/02 13:49:37;;;;;;;3.90;0.80;;;24.30;99.90;;;;;;5065315;28;20193;-78
2022/07/02 13:52:21;;;;;;;3.53;0.80;;;24.30;99.90;;;;;;5059417;28;20213;-77
2022/07/02 13:55:06;;;;;;;2.13;0.60;;;24.30;99.90;;;;;;5067984;28;20248;-78
2022/07/02 13:57:50;;;;;;;2.47;0.70;;;24.40;99.90;;;;;;5063359;28;20668;-76
2022/07/02 14:00:34;;;;;;;1.33;0.60;;;24.40;99.90;;;;;;5067900;28;20236;-77
2022/07/02 14:03:18;;;;;;;2.80;0.70;;;24.50;99.90;;;;;;5061078;28;20213;-77
2022/07/02 14:06:02;;;;;;;3.35;0.70;;;24.50;99.90;;;;;;5067300;28;20217;-78
2022/07/02 14:08:46;;;;;;;1.15;0.57;;;24.50;99.90;;;;;;5064576;28;20681;-78
2022/07/02 14:11:31;;;;;;;2.40;0.70;;;24.50;99.90;;;;;;5065912;28;20197;-77
2022/07/02 14:14:15;;;;;;;4.60;0.70;;;24.50;99.90;;;;;;5071729;28;20237;-78
2022/07/02 14:16:59;;;;;;;6.03;0.80;;;24.60;99.90;;;;;;5061000;28;20186;-77
2022/07/02 14:19:43;;;;;;;1.15;0.50;;;24.70;99.90;;;;;;5067692;28;20219;-77
2022/07/02 14:22:29;;;;;;;3.08;0.63;;;24.80;99.90;;;;;;5063558;28;20203;-77
2022/07/02 14:25:14;;;;;;;1.45;0.77;;;24.80;99.90;;;;;;5084531;28;20236;-78